Time;durP1;ratioP1;P1;durP2;ratioP2;P2;SDS_P1;SDS_P2;PMS_P1;PMS_P2;Temp;Humidity;BMP_temperature;BMP_pressure;BME280_temperature;BME280_humidity;BME280_pressure;Samples;Min_cycle;Max_cycle;Signal;HPM_P1;HPM_P2
2022/10/28 00:00:50;;;;;;;12.30;7.28;;;17.10;99.90;;;;;;5019064;28;20021;-61
2022/10/28 00:03:38;;;;;;;12.43;6.93;;;17.00;99.90;;;;;;5031882;28;20125;-61
2022/10/28 00:06:27;;;;;;;12.35;7.25;;;17.00;99.90;;;;;;5018861;28;20116;-60
2022/10/28 00:09:13;;;;;;;10.98;7.10;;;17.00;99.90;;;;;;5018636;28;20104;-60
2022/10/28 00:11:59;;;;;;;12.43;7.28;;;17.00;99.90;;;;;;5004942;28;20025;-58
2022/10/28 00:14:45;;;;;;;11.45;6.65;;;17.00;99.90;;;;;;5031859;28;20060;-59
2022/10/28 00:17:31;;;;;;;10.23;6.93;;;16.80;99.90;;;;;;5032695;28;20032;-60
2022/10/28 00:20:17;;;;;;;15.32;6.90;;;16.80;99.90;;;;;;5031154;28;20029;-60
2022/10/28 00:23:03;;;;;;;10.63;7.55;;;16.80;99.90;;;;;;5017908;28;20485;-60
2022/10/28 00:25:49;;;;;;;11.55;7.78;;;16.80;99.90;;;;;;5031338;28;20034;-62
2022/10/28 00:28:38;;;;;;;11.05;7.47;;;16.70;99.90;;;;;;5017990;28;20025;-62
2022/10/28 00:31:28;;;;;;;14.07;7.65;;;16.70;99.90;;;;;;4998797;28;20036;-59
2022/10/28 00:34:16;;;;;;;15.60;8.25;;;16.80;99.90;;;;;;5019013;28;20032;-58
2022/10/28 00:37:02;;;;;;;9.48;7.10;;;16.70;99.90;;;;;;5042297;28;20048;-60
2022/10/28 00:39:48;;;;;;;12.13;7.47;;;16.70;99.90;;;;;;5038745;28;20034;-61
2022/10/28 00:42:34;;;;;;;11.55;8.07;;;16.70;99.90;;;;;;5026170;28;20025;-61
2022/10/28 00:45:20;;;;;;;10.75;7.63;;;16.80;99.90;;;;;;5023200;28;20127;-56
2022/10/28 00:48:07;;;;;;;11.23;6.72;;;16.80;99.90;;;;;;5005125;28;20045;-61
2022/10/28 00:50:54;;;;;;;13.65;6.97;;;16.70;99.90;;;;;;5004060;28;20565;-62
2022/10/28 00:53:41;;;;;;;14.00;7.07;;;16.70;99.90;;;;;;5031234;28;20454;-61
2022/10/28 00:56:33;;;;;;;15.82;7.22;;;16.70;99.90;;;;;;4997793;28;20030;-60
2022/10/28 00:59:23;;;;;;;11.23;7.47;;;16.80;99.90;;;;;;5017714;28;20075;-60
2022/10/28 01:02:09;;;;;;;10.55;6.78;;;16.80;99.90;;;;;;5016864;28;20112;-60
2022/10/28 01:04:55;;;;;;;12.32;8.00;;;16.80;99.90;;;;;;5031134;28;20022;-61
2022/10/28 01:07:42;;;;;;;12.95;7.03;;;16.70;99.90;;;;;;5015852;28;20054;-60
2022/10/28 01:10:49;;;;;;;10.45;6.60;;;16.80;99.90;;;;;;5016906;28;20030;-60
2022/10/28 01:13:57;;;;;;;13.52;8.15;;;16.70;99.90;;;;;;5030906;28;20029;-58
2022/10/28 01:17:11;;;;;;;11.65;7.50;;;16.80;99.90;;;;;;5030676;28;20029;-58
2022/10/28 01:20:08;;;;;;;11.23;7.50;;;16.80;99.90;;;;;;5010900;28;20029;-62
2022/10/28 01:23:04;;;;;;;14.02;7.30;;;16.70;99.90;;;;;;5016168;28;20108;-62
2022/10/28 01:26:22;;;;;;;10.90;7.22;;;16.70;99.90;;;;;;5016172;28;20026;-61
2022/10/28 01:29:36;;;;;;;12.68;6.90;;;16.70;99.90;;;;;;5030214;28;20430;-61
2022/10/28 01:32:25;;;;;;;13.10;6.47;;;16.70;99.90;;;;;;5029090;28;20026;-61
2022/10/28 01:35:21;;;;;;;12.95;7.22;;;16.60;99.90;;;;;;4996178;28;20038;-60
2022/10/28 01:38:31;;;;;;;11.50;6.53;;;16.70;99.90;;;;;;5002568;28;20025;-61
2022/10/28 01:41:41;;;;;;;13.82;7.13;;;16.70;99.90;;;;;;5030727;28;20033;-63
2022/10/28 01:44:40;;;;;;;12.38;7.85;;;16.60;99.90;;;;;;5029219;28;20037;-61
2022/10/28 01:48:05;;;;;;;9.88;7.32;;;16.60;99.90;;;;;;5016215;28;20060;-63
2022/10/28 01:50:54;;;;;;;11.60;7.60;;;16.60;99.90;;;;;;4936455;29;20024;-59
2022/10/28 01:53:43;;;;;;;11.93;6.88;;;16.70;99.90;;;;;;5017363;28;20041;-60
2022/10/28 01:56:34;;;;;;;12.32;7.20;;;16.60;99.90;;;;;;5001898;28;20082;-61
2022/10/28 01:59:24;;;;;;;8.70;6.43;;;16.60;99.90;;;;;;5030184;28;20026;-60
2022/10/28 02:02:10;;;;;;;11.65;6.90;;;16.60;99.90;;;;;;5028688;28;20513;-62
2022/10/28 02:05:24;;;;;;;11.30;6.72;;;16.60;99.90;;;;;;5015794;28;20214;-59
2022/10/28 02:08:16;;;;;;;11.60;7.70;;;16.60;99.90;;;;;;5028290;28;20079;-61
2022/10/28 02:11:17;;;;;;;15.95;7.20;;;16.60;99.90;;;;;;5029021;28;20116;-60
2022/10/28 02:14:22;;;;;;;14.57;7.15;;;16.60;99.90;;;;;;5029548;28;20026;-60
2022/10/28 02:17:31;;;;;;;12.93;7.00;;;16.50;99.90;;;;;;5028752;28;20413;-60
2022/10/28 02:20:26;;;;;;;12.70;7.60;;;16.50;99.90;;;;;;5029377;28;20486;-60
2022/10/28 02:23:32;;;;;;;10.98;6.68;;;16.60;99.90;;;;;;5015076;28;20044;-60
2022/10/28 02:26:28;;;;;;;10.82;7.85;;;16.60;99.90;;;;;;5015136;28;20497;-62
2022/10/28 02:29:33;;;;;;;10.23;6.72;;;16.60;99.90;;;;;;5015757;28;20056;-62
2022/10/28 02:32:24;;;;;;;10.02;7.53;;;16.60;99.90;;;;;;5014945;28;20025;-62
2022/10/28 02:35:23;;;;;;;13.52;7.88;;;16.60;99.90;;;;;;5015889;28;20506;-62
2022/10/28 02:38:16;;;;;;;13.60;7.38;;;16.50;99.90;;;;;;5028723;28;20474;-60
2022/10/28 02:41:07;;;;;;;12.30;8.25;;;16.50;99.90;;;;;;5029366;28;20056;-61
2022/10/28 02:43:57;;;;;;;11.35;7.45;;;16.50;99.90;;;;;;5012998;28;20037;-59
2022/10/28 02:46:47;;;;;;;12.93;7.70;;;16.60;99.90;;;;;;5015378;28;20216;-59
2022/10/28 02:49:36;;;;;;;15.50;8.25;;;16.60;99.90;;;;;;5032692;28;20017;-61
2022/10/28 02:52:25;;;;;;;14.52;8.43;;;16.60;99.90;;;;;;5018310;28;20029;-62
2022/10/28 02:55:11;;;;;;;12.80;8.85;;;16.60;99.90;;;;;;5005454;28;20140;-62
2022/10/28 02:57:57;;;;;;;13.90;9.43;;;16.50;99.90;;;;;;5005380;28;20068;-61
2022/10/28 03:00:45;;;;;;;12.10;7.78;;;16.50;99.90;;;;;;5032140;28;20030;-61
2022/10/28 03:03:30;;;;;;;13.13;8.73;;;16.50;99.90;;;;;;5019745;28;20029;-61
2022/10/28 03:06:17;;;;;;;15.63;8.57;;;16.40;99.90;;;;;;5004598;28;20183;-61
2022/10/28 03:09:03;;;;;;;14.90;7.95;;;16.40;99.90;;;;;;5005853;28;20116;-60
2022/10/28 03:11:49;;;;;;;10.40;7.90;;;16.40;99.90;;;;;;5009035;28;20026;-62
2022/10/28 03:14:35;;;;;;;11.02;7.68;;;16.40;99.90;;;;;;5024406;28;20048;-60
2022/10/28 03:17:21;;;;;;;12.52;8.30;;;16.40;99.90;;;;;;5022023;28;20109;-61
2022/10/28 03:20:07;;;;;;;11.80;7.85;;;16.50;99.90;;;;;;5017565;28;20045;-62
2022/10/28 03:22:53;;;;;;;15.60;8.45;;;16.40;99.90;;;;;;5032565;28;20033;-61
2022/10/28 03:25:39;;;;;;;10.10;7.80;;;16.40;99.90;;;;;;5017298;28;20041;-61
2022/10/28 03:28:25;;;;;;;12.88;8.98;;;16.40;99.90;;;;;;5018062;28;20042;-60
2022/10/28 03:31:11;;;;;;;12.35;9.20;;;16.50;99.90;;;;;;5004522;28;20108;-60
2022/10/28 03:33:57;;;;;;;13.18;8.02;;;16.40;99.90;;;;;;5018086;28;20041;-62
2022/10/28 03:36:43;;;;;;;12.50;8.60;;;16.40;99.90;;;;;;5004029;28;20022;-60
2022/10/28 03:39:29;;;;;;;11.27;8.10;;;16.40;99.90;;;;;;5017698;28;20033;-59
2022/10/28 03:42:15;;;;;;;9.90;7.93;;;16.30;99.90;;;;;;5004393;28;20409;-61
2022/10/28 03:45:01;;;;;;;14.10;8.07;;;16.40;99.90;;;;;;5017914;28;20469;-59
2022/10/28 03:47:47;;;;;;;11.90;8.88;;;16.30;99.90;;;;;;5017865;28;20093;-59
2022/10/28 03:50:33;;;;;;;14.70;8.57;;;16.40;99.90;;;;;;5004572;28;20034;-60
2022/10/28 03:53:20;;;;;;;12.00;8.05;;;16.40;99.90;;;;;;5032362;28;20033;-59
2022/10/28 03:56:07;;;;;;;15.10;9.07;;;16.40;99.90;;;;;;5017911;28;20045;-58
2022/10/28 03:58:53;;;;;;;14.48;8.20;;;16.40;99.90;;;;;;5017560;28;20022;-58
2022/10/28 04:01:38;;;;;;;13.30;8.15;;;16.30;99.90;;;;;;5017856;28;20101;-58
2022/10/28 04:04:25;;;;;;;14.43;7.88;;;16.40;99.90;;;;;;5017154;28;20120;-60
2022/10/28 04:07:11;;;;;;;14.43;8.10;;;16.30;99.90;;;;;;5031589;28;20404;-60
2022/10/28 04:09:57;;;;;;;10.15;7.40;;;16.30;99.90;;;;;;5017574;28;20043;-61
2022/10/28 04:12:43;;;;;;;14.55;9.68;;;16.30;99.90;;;;;;5032134;28;20025;-61
2022/10/28 04:15:29;;;;;;;14.18;9.48;;;16.30;99.90;;;;;;5017867;28;20119;-61
2022/10/28 04:18:15;;;;;;;17.38;9.00;;;16.20;99.90;;;;;;5016775;28;20386;-62
2022/10/28 04:21:01;;;;;;;12.32;8.57;;;16.30;99.90;;;;;;5031410;28;20045;-61
2022/10/28 04:23:47;;;;;;;14.27;10.60;;;16.30;99.90;;;;;;5031224;28;20441;-62
2022/10/28 04:26:33;;;;;;;16.45;11.98;;;16.30;99.90;;;;;;5031409;28;20029;-63
2022/10/28 04:29:19;;;;;;;14.52;10.23;;;16.30;99.90;;;;;;5030690;28;20039;-63
2022/10/28 04:32:05;;;;;;;17.73;11.98;;;16.30;99.90;;;;;;5029884;28;20091;-63
2022/10/28 04:34:51;;;;;;;14.73;10.02;;;16.30;99.90;;;;;;5016664;28;20038;-62
2022/10/28 04:37:39;;;;;;;14.15;10.77;;;16.30;99.90;;;;;;5016557;28;20061;-63
2022/10/28 04:40:25;;;;;;;15.75;10.18;;;16.20;99.90;;;;;;5031156;28;20034;-63
2022/10/28 04:43:11;;;;;;;13.90;10.40;;;16.20;99.90;;;;;;5029616;28;20025;-63
2022/10/28 04:45:56;;;;;;;14.05;10.50;;;16.20;99.90;;;;;;5030982;28;20095;-62
2022/10/28 04:48:42;;;;;;;13.13;8.82;;;16.20;99.90;;;;;;5016222;28;20110;-63
2022/10/28 04:51:28;;;;;;;13.50;8.60;;;16.20;99.90;;;;;;5030600;28;20040;-63
2022/10/28 04:54:14;;;;;;;12.20;9.07;;;16.20;99.90;;;;;;5031565;28;20471;-64
2022/10/28 04:57:01;;;;;;;18.88;9.60;;;16.20;99.90;;;;;;4997160;28;20560;-63
2022/10/28 04:59:47;;;;;;;12.15;9.10;;;16.20;99.90;;;;;;5013438;28;20457;-64
2022/10/28 05:02:32;;;;;;;10.10;8.48;;;16.20;99.90;;;;;;5017785;28;20452;-63
2022/10/28 05:05:19;;;;;;;13.63;9.35;;;16.10;99.90;;;;;;5030494;28;20037;-62
2022/10/28 05:08:05;;;;;;;23.42;15.57;;;16.10;99.90;;;;;;5029753;28;20512;-64
2022/10/28 05:10:51;;;;;;;16.02;10.93;;;16.10;99.90;;;;;;5029482;28;20117;-63
2022/10/28 05:13:37;;;;;;;14.25;9.23;;;16.10;99.90;;;;;;5020798;28;20034;-62
2022/10/28 05:16:23;;;;;;;13.73;8.93;;;16.10;99.90;;;;;;5030681;28;20132;-63
2022/10/28 05:19:09;;;;;;;12.32;7.78;;;16.20;99.90;;;;;;5030007;28;20061;-63
2022/10/28 05:21:54;;;;;;;10.32;8.32;;;16.20;99.90;;;;;;5029792;28;20026;-62
2022/10/28 05:24:40;;;;;;;11.15;8.77;;;16.10;99.90;;;;;;5030277;28;20033;-62
2022/10/28 05:27:26;;;;;;;12.45;8.60;;;16.10;99.90;;;;;;5014954;28;20037;-64
2022/10/28 05:30:13;;;;;;;14.77;9.63;;;16.10;99.90;;;;;;4996630;28;20044;-63
2022/10/28 05:33:02;;;;;;;17.80;12.00;;;16.10;99.90;;;;;;5019256;28;20137;-66
2022/10/28 05:35:48;;;;;;;17.02;11.93;;;16.20;99.90;;;;;;5030102;28;20037;-62
2022/10/28 05:38:34;;;;;;;17.40;10.07;;;16.20;99.90;;;;;;5029331;28;20513;-64
2022/10/28 05:41:20;;;;;;;13.85;9.93;;;16.20;99.90;;;;;;5002035;28;20046;-62
2022/10/28 05:44:06;;;;;;;12.63;9.90;;;16.20;99.90;;;;;;5027870;28;20037;-62
2022/10/28 05:46:53;;;;;;;16.88;10.57;;;16.20;99.90;;;;;;5014453;28;20490;-63
2022/10/28 05:49:38;;;;;;;11.85;8.52;;;16.20;99.90;;;;;;5019284;28;20100;-63
2022/10/28 05:52:24;;;;;;;19.85;9.43;;;16.20;99.90;;;;;;5023256;28;20068;-63
2022/10/28 05:55:10;;;;;;;15.95;10.07;;;16.20;99.90;;;;;;5017226;28;20037;-64
2022/10/28 05:57:56;;;;;;;18.23;13.63;;;16.30;99.90;;;;;;5035295;28;20041;-62
2022/10/28 06:00:42;;;;;;;14.13;9.48;;;16.30;99.90;;;;;;5010359;28;20500;-63
2022/10/28 06:03:28;;;;;;;12.60;9.38;;;16.30;99.90;;;;;;5022882;28;20409;-62
2022/10/28 06:06:14;;;;;;;19.88;9.85;;;16.40;99.90;;;;;;5005127;28;20418;-64
2022/10/28 06:09:00;;;;;;;15.00;10.65;;;16.40;99.90;;;;;;5027891;28;20036;-63
2022/10/28 06:11:46;;;;;;;15.68;9.60;;;16.40;99.90;;;;;;5008027;28;20220;-63
2022/10/28 06:14:32;;;;;;;14.13;9.20;;;16.40;99.90;;;;;;5030157;28;20464;-62
2022/10/28 06:17:18;;;;;;;10.20;7.82;;;16.50;99.90;;;;;;5026854;28;20081;-62
2022/10/28 06:20:04;;;;;;;14.05;10.38;;;16.50;99.90;;;;;;5029258;28;20021;-63
2022/10/28 06:22:53;;;;;;;19.10;13.43;;;16.50;99.90;;;;;;5026984;28;20030;-62
2022/10/28 06:25:39;;;;;;;23.02;14.15;;;16.50;99.90;;;;;;5004785;28;20045;-62
2022/10/28 06:28:28;;;;;;;23.58;12.90;;;16.50;99.90;;;;;;5025145;28;20387;-62
2022/10/28 06:31:14;;;;;;;37.63;29.65;;;16.50;99.90;;;;;;5028624;28;20517;-63
2022/10/28 06:34:00;;;;;;;19.80;13.73;;;16.50;99.90;;;;;;5024835;28;20044;-63
2022/10/28 06:36:46;;;;;;;13.82;10.88;;;16.50;99.90;;;;;;5005955;28;20612;-62
2022/10/28 06:39:32;;;;;;;17.98;10.90;;;16.50;99.90;;;;;;5019764;28;20121;-63
2022/10/28 06:42:19;;;;;;;25.73;14.23;;;16.50;99.90;;;;;;5014187;28;20033;-63
2022/10/28 06:45:05;;;;;;;23.48;11.95;;;16.40;99.90;;;;;;5029341;28;20401;-62
2022/10/28 06:47:56;;;;;;;14.38;9.82;;;16.50;99.90;;;;;;4995070;28;20040;-64
2022/10/28 06:50:42;;;;;;;15.32;9.85;;;16.50;99.90;;;;;;5012175;28;20036;-62
2022/10/28 06:53:28;;;;;;;14.35;8.90;;;16.60;99.90;;;;;;5029473;28;20160;-63
2022/10/28 06:56:14;;;;;;;25.15;18.00;;;16.60;99.90;;;;;;5028995;28;20100;-63
2022/10/28 06:59:00;;;;;;;14.05;9.73;;;16.60;99.90;;;;;;5028088;28;20083;-63
2022/10/28 07:01:46;;;;;;;15.60;8.32;;;16.60;99.90;;;;;;5028602;28;20022;-63
2022/10/28 07:04:32;;;;;;;11.75;8.05;;;16.50;99.90;;;;;;5029162;28;20037;-63
2022/10/28 07:07:18;;;;;;;12.90;7.55;;;16.60;99.90;;;;;;5017365;28;20041;-62
2022/10/28 07:10:05;;;;;;;13.82;8.68;;;16.60;99.90;;;;;;5028375;28;20152;-63
2022/10/28 07:12:52;;;;;;;12.85;9.15;;;16.60;99.90;;;;;;5024442;28;20029;-63
2022/10/28 07:15:38;;;;;;;15.00;8.30;;;16.50;99.90;;;;;;5015090;28;20547;-64
2022/10/28 07:18:25;;;;;;;12.63;7.95;;;16.40;99.90;;;;;;5028740;28;20562;-64
2022/10/28 07:21:13;;;;;;;14.80;6.82;;;16.60;99.90;;;;;;5013957;28;20538;-63
2022/10/28 07:23:59;;;;;;;15.93;8.68;;;16.70;99.90;;;;;;5014404;28;20022;-64
2022/10/28 07:26:48;;;;;;;13.23;8.35;;;16.70;99.90;;;;;;5028323;28;20025;-64
2022/10/28 07:29:34;;;;;;;14.38;8.23;;;16.60;99.90;;;;;;5029838;28;20034;-63
2022/10/28 07:32:19;;;;;;;10.82;7.28;;;16.70;99.90;;;;;;5028691;28;20033;-63
2022/10/28 07:35:06;;;;;;;9.35;6.75;;;16.70;99.90;;;;;;5032501;28;20029;-64
2022/10/28 07:37:52;;;;;;;14.15;7.95;;;16.70;99.90;;;;;;5018184;28;20405;-63
2022/10/28 07:40:37;;;;;;;10.52;7.53;;;16.80;99.90;;;;;;4990291;28;20026;-64
2022/10/28 07:43:23;;;;;;;11.35;7.68;;;16.80;99.90;;;;;;5031207;28;20359;-64
2022/10/28 07:46:09;;;;;;;16.10;8.52;;;16.90;99.90;;;;;;5032423;28;20084;-63
2022/10/28 07:48:55;;;;;;;17.92;12.20;;;16.90;99.90;;;;;;5032356;28;20045;-62
2022/10/28 07:51:41;;;;;;;14.40;9.02;;;16.90;99.90;;;;;;5000164;28;20116;-63
2022/10/28 07:54:27;;;;;;;13.93;8.85;;;17.00;99.90;;;;;;5018065;28;20092;-64
2022/10/28 07:57:13;;;;;;;14.80;10.00;;;17.00;99.90;;;;;;5031614;28;20494;-64
2022/10/28 08:00:00;;;;;;;10.07;7.90;;;17.00;99.90;;;;;;5017100;28;20101;-63
2022/10/28 08:02:46;;;;;;;16.35;7.78;;;17.00;99.90;;;;;;5013016;28;20032;-63
2022/10/28 08:05:32;;;;;;;19.63;15.05;;;17.00;99.90;;;;;;4998521;28;20049;-63
2022/10/28 08:08:17;;;;;;;11.48;8.38;;;16.90;99.90;;;;;;5012613;28;20038;-63
2022/10/28 08:11:18;;;;;;;18.00;8.50;;;16.90;99.90;;;;;;5032662;28;20033;-62
2022/10/28 08:14:07;;;;;;;15.13;9.02;;;16.90;99.90;;;;;;5017192;28;20033;-63
2022/10/28 08:16:53;;;;;;;13.82;7.25;;;17.00;99.90;;;;;;5016578;28;20030;-63
2022/10/28 08:19:49;;;;;;;16.33;8.35;;;17.00;99.90;;;;;;5030699;28;20041;-63
2022/10/28 08:22:37;;;;;;;12.90;8.00;;;17.00;99.90;;;;;;5018110;28;20017;-63
2022/10/28 08:25:23;;;;;;;13.73;8.25;;;17.10;99.90;;;;;;5008655;28;20104;-64
2022/10/28 08:28:09;;;;;;;13.00;7.47;;;17.10;99.90;;;;;;5030715;28;20033;-65
2022/10/28 08:31:03;;;;;;;12.50;7.50;;;17.20;99.90;;;;;;5031397;28;20033;-63
2022/10/28 08:33:49;;;;;;;15.77;7.20;;;17.20;99.90;;;;;;5031707;28;20025;-63
2022/10/28 08:36:35;;;;;;;9.15;6.22;;;17.20;99.90;;;;;;5016785;28;20041;-63
2022/10/28 08:39:21;;;;;;;12.18;7.18;;;17.30;99.90;;;;;;5017381;28;20033;-63
2022/10/28 08:42:25;;;;;;;17.90;7.47;;;17.40;99.90;;;;;;5029396;28;20029;-64
2022/10/28 08:45:23;;;;;;;11.57;7.33;;;17.50;99.90;;;;;;5031329;28;20451;-62
2022/10/28 08:48:26;;;;;;;13.82;6.82;;;17.50;99.90;;;;;;5031262;28;20057;-64
2022/10/28 08:51:38;;;;;;;12.18;7.22;;;17.60;99.90;;;;;;5017085;28;20029;-60
2022/10/28 08:54:33;;;;;;;14.52;7.63;;;17.60;99.90;;;;;;5029841;28;20052;-65
2022/10/28 08:57:37;;;;;;;;;;;17.70;99.90;;;;;;5014834;28;20108;-62
2022/10/28 09:00:27;;;;;;;14.80;7.20;;;17.80;99.90;;;;;;5009801;28;19905;-63
2022/10/28 09:03:21;;;;;;;16.33;7.57;;;17.90;99.90;;;;;;5015350;28;20020;-61
2022/10/28 09:06:09;;;;;;;14.02;7.45;;;18.10;99.90;;;;;;5028952;28;20087;-63
2022/10/28 09:08:57;;;;;;;11.02;6.75;;;18.20;99.90;;;;;;5016145;28;20040;-63
2022/10/28 09:11:51;;;;;;;11.25;6.80;;;18.40;99.90;;;;;;4997440;28;20045;-63
2022/10/28 09:15:02;;;;;;;14.88;6.93;;;18.40;99.90;;;;;;5013335;28;20027;-62
2022/10/28 09:18:04;;;;;;;29.35;19.73;;;18.50;99.90;;;;;;5026601;28;20022;-64
2022/10/28 09:21:01;;;;;;;13.43;8.30;;;18.60;99.90;;;;;;5018656;28;20111;-63
2022/10/28 09:23:59;;;;;;;15.63;6.80;;;18.60;99.90;;;;;;5030211;28;20029;-63
2022/10/28 09:26:56;;;;;;;16.80;7.15;;;18.60;99.90;;;;;;5012946;28;20110;-62
2022/10/28 09:29:56;;;;;;;14.60;7.80;;;18.70;99.90;;;;;;5012015;28;20708;-63
2022/10/28 09:33:17;;;;;;;25.35;14.63;;;18.70;99.90;;;;;;5014165;28;20037;-63
2022/10/28 09:36:04;;;;;;;12.90;8.63;;;18.70;99.90;;;;;;5014726;28;20097;-64
2022/10/28 09:38:53;;;;;;;16.75;7.70;;;18.70;99.90;;;;;;4996658;28;20101;-62
2022/10/28 09:41:41;;;;;;;12.20;7.50;;;18.60;99.90;;;;;;5011206;28;20030;-63
2022/10/28 09:44:33;;;;;;;13.07;7.65;;;18.80;99.90;;;;;;5009976;28;20539;-63
2022/10/28 09:47:39;;;;;;;12.00;6.88;;;18.90;99.90;;;;;;5030011;28;20252;-64
2022/10/28 09:50:28;;;;;;;12.05;9.18;;;19.00;99.90;;;;;;5010316;28;20030;-65
2022/10/28 09:53:42;;;;;;;16.52;7.45;;;19.00;99.90;;;;;;4998164;28;20030;-63
2022/10/28 09:56:29;;;;;;;14.82;7.43;;;19.20;99.90;;;;;;5030385;28;20095;-64
2022/10/28 09:59:15;;;;;;;11.55;6.97;;;19.20;99.90;;;;;;5015708;28;20037;-64
2022/10/28 10:02:02;;;;;;;14.48;7.65;;;19.20;99.90;;;;;;5029561;28;20038;-63
2022/10/28 10:04:48;;;;;;;16.08;9.18;;;19.20;99.90;;;;;;5030068;28;20029;-62
2022/10/28 10:08:02;;;;;;;16.30;7.97;;;19.30;99.90;;;;;;5029533;28;20044;-63
2022/10/28 10:10:51;;;;;;;21.02;14.15;;;19.50;99.90;;;;;;5029181;28;20029;-63
2022/10/28 10:13:40;;;;;;;16.40;9.15;;;19.60;99.90;;;;;;5028442;28;20033;-63
2022/10/28 10:16:39;;;;;;;13.38;8.35;;;19.70;99.90;;;;;;5026243;28;20044;-63
2022/10/28 10:19:25;;;;;;;13.55;7.60;;;19.70;99.90;;;;;;4998637;28;20022;-63
2022/10/28 10:22:31;;;;;;;12.35;7.65;;;19.80;99.90;;;;;;5014643;28;20105;-64
2022/10/28 10:25:17;;;;;;;16.48;7.35;;;19.90;99.90;;;;;;5029920;28;20040;-64
2022/10/28 10:28:13;;;;;;;13.30;7.40;;;20.00;99.90;;;;;;4994661;28;20169;-64
2022/10/28 10:31:04;;;;;;;11.15;7.00;;;20.00;99.90;;;;;;5004537;28;20037;-63
2022/10/28 10:33:55;;;;;;;10.52;6.88;;;20.20;99.90;;;;;;5016123;28;20433;-63
2022/10/28 10:36:49;;;;;;;13.40;6.82;;;20.30;99.90;;;;;;5023200;28;20068;-64
2022/10/28 10:39:36;;;;;;;18.58;9.65;;;20.50;99.90;;;;;;5032556;28;20029;-63
2022/10/28 10:42:24;;;;;;;15.10;7.82;;;20.70;99.90;;;;;;5047136;28;20014;-63
2022/10/28 10:45:13;;;;;;;10.45;5.90;;;20.70;99.50;;;;;;5048442;28;20097;-63
2022/10/28 10:48:12;;;;;;;16.80;7.55;;;20.80;99.40;;;;;;5017040;28;20085;-61
2022/10/28 10:51:07;;;;;;;9.90;6.70;;;20.70;99.00;;;;;;5027055;28;20110;-63
2022/10/28 10:53:59;;;;;;;10.73;5.82;;;20.70;99.20;;;;;;5028790;28;20401;-63
2022/10/28 10:56:45;;;;;;;14.55;6.68;;;20.70;99.50;;;;;;5012761;28;20065;-61
2022/10/28 10:59:36;;;;;;;11.90;6.03;;;20.80;99.10;;;;;;5015336;28;20017;-62
2022/10/28 11:02:35;;;;;;;13.70;5.30;;;20.90;99.20;;;;;;5029623;28;20409;-62
2022/10/28 11:05:22;;;;;;;13.27;5.70;;;21.10;98.90;;;;;;5019346;28;20479;-62
2022/10/28 11:08:46;;;;;;;15.75;6.78;;;21.20;98.70;;;;;;5012951;28;20027;-62
2022/10/28 11:11:38;;;;;;;14.30;6.53;;;21.10;99.00;;;;;;4987903;28;20525;-62
2022/10/28 11:14:28;;;;;;;11.90;5.35;;;21.20;98.90;;;;;;4999346;28;20067;-62
2022/10/28 11:17:24;;;;;;;14.00;6.43;;;21.20;98.70;;;;;;5017253;28;20049;-58
2022/10/28 11:20:52;;;;;;;18.40;6.65;;;21.30;98.80;;;;;;5012566;28;20049;-59
2022/10/28 11:23:49;;;;;;;16.75;6.50;;;21.20;98.90;;;;;;5003229;28;20112;-63
2022/10/28 11:26:43;;;;;;;9.32;5.35;;;21.20;98.80;;;;;;5015929;28;20030;-60
2022/10/28 11:29:30;;;;;;;10.25;5.38;;;21.20;98.90;;;;;;5032730;28;20489;-62
2022/10/28 11:32:44;;;;;;;15.95;6.15;;;21.30;98.90;;;;;;5031030;28;20060;-62
2022/10/28 11:35:47;;;;;;;11.55;5.55;;;21.30;99.10;;;;;;5012173;28;20072;-63
2022/10/28 11:39:12;;;;;;;9.20;5.47;;;21.40;99.00;;;;;;5012542;28;20029;-62
2022/10/28 11:42:13;;;;;;;13.98;5.63;;;21.50;99.10;;;;;;5025116;28;20133;-62
2022/10/28 11:45:17;;;;;;;10.70;6.00;;;21.60;99.20;;;;;;5031445;28;20497;-62
2022/10/28 11:48:16;;;;;;;9.40;5.93;;;21.60;99.20;;;;;;5030812;28;20064;-62
2022/10/28 11:51:07;;;;;;;12.30;4.97;;;21.70;99.30;;;;;;5031450;28;20111;-62
2022/10/28 11:54:22;;;;;;;9.07;5.68;;;21.70;99.20;;;;;;5032235;28;20033;-62
2022/10/28 11:57:14;;;;;;;10.48;5.55;;;21.70;99.40;;;;;;5005316;28;20117;-62
2022/10/28 12:00:19;;;;;;;9.60;5.35;;;21.80;99.20;;;;;;5032366;28;20034;-62
2022/10/28 12:03:14;;;;;;;14.35;5.20;;;21.90;99.10;;;;;;5031205;28;20180;-62
2022/10/28 12:06:21;;;;;;;10.27;5.20;;;22.00;99.10;;;;;;5018051;28;20474;-62
2022/10/28 12:09:49;;;;;;;11.48;5.35;;;22.10;98.90;;;;;;5031347;28;20060;-64
2022/10/28 12:12:43;;;;;;;8.43;5.15;;;22.20;98.80;;;;;;5017513;28;20049;-61
2022/10/28 12:15:51;;;;;;;15.88;6.55;;;22.20;98.70;;;;;;5031135;28;20033;-62
2022/10/28 12:18:56;;;;;;;9.13;5.38;;;22.30;98.90;;;;;;5031678;28;20025;-63
2022/10/28 12:21:58;;;;;;;13.07;5.65;;;22.30;99.00;;;;;;5031837;28;20022;-64
2022/10/28 12:24:45;;;;;;;11.15;5.55;;;22.30;99.20;;;;;;5018084;28;20053;-63
2022/10/28 12:27:38;;;;;;;12.48;5.32;;;22.30;99.70;;;;;;5031171;28;20064;-62
2022/10/28 12:30:29;;;;;;;9.10;6.13;;;22.30;99.50;;;;;;5031205;28;20032;-63
2022/10/28 12:33:40;;;;;;;15.05;6.03;;;22.20;99.40;;;;;;5031187;28;20033;-62
2022/10/28 12:36:43;;;;;;;9.60;5.30;;;22.20;99.60;;;;;;5020805;28;20466;-63
2022/10/28 12:40:00;;;;;;;11.45;5.60;;;22.20;99.70;;;;;;4990692;28;20660;-62
2022/10/28 12:43:14;;;;;;;10.80;5.85;;;22.10;99.80;;;;;;5015410;28;20030;-64
2022/10/28 12:46:01;;;;;;;13.77;5.70;;;22.00;99.90;;;;;;5003134;28;20029;-63
2022/10/28 12:48:54;;;;;;;11.57;5.20;;;22.00;99.90;;;;;;5016812;28;20036;-63
2022/10/28 12:51:40;;;;;;;12.45;6.03;;;22.00;99.80;;;;;;5010294;28;20026;-63
2022/10/28 12:55:01;;;;;;;11.10;5.55;;;22.10;99.70;;;;;;5014297;28;20038;-64
2022/10/28 12:57:53;;;;;;;7.07;4.78;;;22.10;99.20;;;;;;5012871;28;20125;-64
2022/10/28 13:00:45;;;;;;;11.23;5.57;;;22.20;99.00;;;;;;5012281;28;20096;-61
2022/10/28 13:03:32;;;;;;;11.80;5.20;;;22.30;98.60;;;;;;5026070;28;20048;-62
2022/10/28 13:06:49;;;;;;;8.52;5.50;;;22.40;98.40;;;;;;5012372;28;20056;-64
2022/10/28 13:09:48;;;;;;;10.88;5.55;;;22.40;98.00;;;;;;5013017;28;20391;-63
2022/10/28 13:12:46;;;;;;;12.52;5.80;;;22.50;97.90;;;;;;5007913;28;20472;-64
2022/10/28 13:15:44;;;;;;;12.63;5.68;;;22.50;97.80;;;;;;5015638;28;20045;-63
2022/10/28 13:18:51;;;;;;;13.23;5.43;;;22.50;97.80;;;;;;5026449;28;20108;-65
2022/10/28 13:22:14;;;;;;;12.95;5.63;;;22.50;97.60;;;;;;5022286;28;20056;-62
2022/10/28 13:25:12;;;;;;;11.57;5.30;;;22.60;97.40;;;;;;5027349;28;20025;-64
2022/10/28 13:27:59;;;;;;;14.18;5.63;;;22.50;97.30;;;;;;5023164;28;20030;-65
2022/10/28 13:30:56;;;;;;;12.35;6.40;;;22.60;97.30;;;;;;5019971;28;20033;-63
2022/10/28 13:33:57;;;;;;;14.63;5.68;;;22.60;97.50;;;;;;5018915;28;20052;-66
2022/10/28 13:36:58;;;;;;;11.45;5.40;;;22.60;97.60;;;;;;5010079;28;20037;-63
2022/10/28 13:39:45;;;;;;;10.30;5.47;;;22.70;97.60;;;;;;5014992;28;20034;-62
2022/10/28 13:42:45;;;;;;;11.40;5.65;;;22.80;97.50;;;;;;5009229;28;20022;-63
2022/10/28 13:45:54;;;;;;;11.75;5.70;;;22.80;97.40;;;;;;5001037;28;20103;-63
2022/10/28 13:48:40;;;;;;;13.63;5.40;;;22.90;97.20;;;;;;5008414;28;20036;-64
2022/10/28 13:51:29;;;;;;;9.02;5.38;;;23.00;96.90;;;;;;5014202;28;20109;-65
2022/10/28 13:54:29;;;;;;;13.57;5.55;;;23.10;96.90;;;;;;5005977;28;20413;-63
2022/10/28 13:57:34;;;;;;;10.68;5.53;;;23.30;96.80;;;;;;5009578;28;20390;-63
2022/10/28 14:00:22;;;;;;;11.77;6.32;;;23.40;96.50;;;;;;5008601;28;20073;-63
2022/10/28 14:03:25;;;;;;;14.50;5.85;;;23.80;96.20;;;;;;5011088;28;20029;-64
2022/10/28 14:06:31;;;;;;;16.67;6.68;;;24.20;95.60;;;;;;5008742;28;20014;-62
2022/10/28 14:09:30;;;;;;;10.07;5.95;;;24.40;95.30;;;;;;5010004;28;20092;-62
2022/10/28 14:12:32;;;;;;;15.48;6.03;;;24.60;94.80;;;;;;5019872;28;20045;-63
2022/10/28 14:15:39;;;;;;;10.63;5.63;;;24.60;94.80;;;;;;5000687;28;20402;-61
2022/10/28 14:18:26;;;;;;;10.45;5.68;;;24.60;94.90;;;;;;5010029;28;20066;-65
2022/10/28 14:21:12;;;;;;;11.35;5.35;;;24.90;94.10;;;;;;5009110;28;20046;-63
2022/10/28 14:24:08;;;;;;;10.73;5.45;;;24.90;94.10;;;;;;5002645;28;20088;-64
2022/10/28 14:27:07;;;;;;;16.38;5.32;;;24.90;94.00;;;;;;5000492;28;20406;-61
2022/10/28 14:29:55;;;;;;;12.98;6.13;;;25.00;93.80;;;;;;5008422;28;20037;-61
2022/10/28 14:32:56;;;;;;;12.27;6.53;;;25.20;93.60;;;;;;5005658;28;20524;-62
2022/10/28 14:35:43;;;;;;;9.43;4.97;;;25.40;93.20;;;;;;5010429;28;20057;-63
2022/10/28 14:38:48;;;;;;;11.02;5.50;;;25.40;93.00;;;;;;4994800;28;20109;-63
2022/10/28 14:41:37;;;;;;;;;;;25.30;93.40;;;;;;5024365;28;20018;-60
2022/10/28 14:44:31;;;;;;;13.07;5.35;;;25.00;93.60;;;;;;5011215;28;20297;-62
2022/10/28 14:47:20;;;;;;;;;;;24.60;94.10;;;;;;5024441;28;20145;-60